sensor_id;sensor_type;location;lat;lon;timestamp;pressure;altitude;pressure_sealevel;temperature;humidity
7018;BME280;3549;42.162;24.726;2023-06-10T00:00:49;47613.25;;;-141.97;86.27
7018;BME280;3549;42.162;24.726;2023-06-10T00:03:16;47594.03;;;-141.97;87.05
7018;BME280;3549;42.162;24.726;2023-06-10T00:05:41;47576.75;;;-141.97;87.32
7018;BME280;3549;42.162;24.726;2023-06-10T00:08:07;47567.13;;;-141.97;86.80
7018;BME280;3549;42.162;24.726;2023-06-10T00:10:36;47553.69;;;-141.97;87.41
7018;BME280;3549;42.162;24.726;2023-06-10T00:13:06;47569.06;;;-141.97;87.09
7018;BME280;3549;42.162;24.726;2023-06-10T00:15:34;47559.44;;;-141.97;87.06
7018;BME280;3549;42.162;24.726;2023-06-10T00:18:01;47734.34;;;-141.97;87.15
7018;BME280;3549;42.162;24.726;2023-06-10T00:20:28;47578.66;;;-141.97;87.53
7018;BME280;3549;42.162;24.726;2023-06-10T00:22:55;47544.06;;;-141.97;87.32
7018;BME280;3549;42.162;24.726;2023-06-10T00:25:22;47511.38;;;-141.97;87.05
7018;BME280;3549;42.162;24.726;2023-06-10T00:27:47;47561.38;;;-141.97;86.66
7018;BME280;3549;42.162;24.726;2023-06-10T00:30:13;47546.00;;;-141.97;85.59
7018;BME280;3549;42.162;24.726;2023-06-10T00:32:38;47567.13;;;-141.97;86.14
7018;BME280;3549;42.162;24.726;2023-06-10T00:35:04;47547.91;;;-141.97;86.83
7018;BME280;3549;42.162;24.726;2023-06-10T00:37:31;47557.53;;;-141.97;87.04
7018;BME280;3549;42.162;24.726;2023-06-10T00:39:57;47565.22;;;-141.97;86.97
7018;BME280;3549;42.162;24.726;2023-06-10T00:42:22;47578.66;;;-141.97;86.85
7018;BME280;3549;42.162;24.726;2023-06-10T00:44:50;47580.59;;;-141.97;86.33
7018;BME280;3549;42.162;24.726;2023-06-10T00:47:16;47547.91;;;-141.97;85.59
7018;BME280;3549;42.162;24.726;2023-06-10T00:49:41;47561.38;;;-141.97;86.00
7018;BME280;3549;42.162;24.726;2023-06-10T00:52:07;47572.91;;;-141.97;85.61
7018;BME280;3549;42.162;24.726;2023-06-10T00:54:33;47595.97;;;-141.97;85.96
7018;BME280;3549;42.162;24.726;2023-06-10T00:57:00;47546.00;;;-141.97;86.46
7018;BME280;3549;42.162;24.726;2023-06-10T00:59:28;47561.38;;;-141.97;86.58
7018;BME280;3549;42.162;24.726;2023-06-10T01:01:53;47599.81;;;-141.97;85.86
7018;BME280;3549;42.162;24.726;2023-06-10T01:04:20;47549.84;;;-141.97;84.53
7018;BME280;3549;42.162;24.726;2023-06-10T01:07:24;47551.75;;;-141.97;84.29
7018;BME280;3549;42.162;24.726;2023-06-10T01:12:39;47576.75;;;-141.97;86.11
7018;BME280;3549;42.162;24.726;2023-06-10T01:15:05;47572.91;;;-141.97;87.57
7018;BME280;3549;42.162;24.726;2023-06-10T01:17:31;47570.97;;;-141.97;87.49
7018;BME280;3549;42.162;24.726;2023-06-10T01:19:57;47534.44;;;-141.97;86.60
7018;BME280;3549;42.162;24.726;2023-06-10T01:22:24;47551.75;;;-141.97;85.46
7018;BME280;3549;42.162;24.726;2023-06-10T01:24:51;47509.47;;;-141.97;84.68
7018;BME280;3549;42.162;24.726;2023-06-10T01:27:18;47544.06;;;-141.97;83.45
7018;BME280;3549;42.162;24.726;2023-06-10T01:29:56;47555.59;;;-141.97;82.79
7018;BME280;3549;42.162;24.726;2023-06-10T01:32:33;47538.28;;;-141.97;81.85
7018;BME280;3549;42.162;24.726;2023-06-10T01:35:01;47586.34;;;-141.97;81.62
7018;BME280;3549;42.162;24.726;2023-06-10T01:37:27;47561.38;;;-141.97;82.61
7018;BME280;3549;42.162;24.726;2023-06-10T01:39:57;47542.16;;;-141.97;84.15
7018;BME280;3549;42.162;24.726;2023-06-10T01:42:23;47561.38;;;-141.97;83.77
7018;BME280;3549;42.162;24.726;2023-06-10T01:44:49;47584.44;;;-141.97;84.52
7018;BME280;3549;42.162;24.726;2023-06-10T01:47:15;47663.22;;;-141.97;84.41
7018;BME280;3549;42.162;24.726;2023-06-10T01:49:41;47536.38;;;-141.97;84.40
7018;BME280;3549;42.162;24.726;2023-06-10T01:52:06;47595.97;;;-141.97;84.35
7018;BME280;3549;42.162;24.726;2023-06-10T01:54:32;47599.81;;;-141.97;84.50
7018;BME280;3549;42.162;24.726;2023-06-10T01:57:00;47594.03;;;-141.97;85.16
7018;BME280;3549;42.162;24.726;2023-06-10T01:59:26;47569.06;;;-141.97;85.41
7018;BME280;3549;42.162;24.726;2023-06-10T02:01:51;47578.66;;;-141.97;85.56
7018;BME280;3549;42.162;24.726;2023-06-10T02:04:16;47580.59;;;-141.97;84.74
7018;BME280;3549;42.162;24.726;2023-06-10T02:06:42;47553.69;;;-141.97;84.30
7018;BME280;3549;42.162;24.726;2023-06-10T02:09:07;47595.97;;;-141.97;83.94
7018;BME280;3549;42.162;24.726;2023-06-10T02:11:33;47570.97;;;-141.97;83.29
7018;BME280;3549;42.162;24.726;2023-06-10T02:13:58;47584.44;;;-141.97;83.11
7018;BME280;3549;42.162;24.726;2023-06-10T02:16:24;47603.66;;;-141.97;82.90
7018;BME280;3549;42.162;24.726;2023-06-10T02:18:49;47515.22;;;-141.97;83.09
7018;BME280;3549;42.162;24.726;2023-06-10T02:21:14;47599.81;;;-141.97;83.36
7018;BME280;3549;42.162;24.726;2023-06-10T02:23:40;47611.34;;;-141.97;83.48
7018;BME280;3549;42.162;24.726;2023-06-10T02:26:05;47676.69;;;-141.97;83.51
7018;BME280;3549;42.162;24.726;2023-06-10T02:28:31;47617.09;;;-141.97;83.11
7018;BME280;3549;42.162;24.726;2023-06-10T02:30:56;47526.75;;;-141.97;82.93
7018;BME280;3549;42.162;24.726;2023-06-10T02:33:22;47565.22;;;-141.97;82.44
7018;BME280;3549;42.162;24.726;2023-06-10T02:35:48;47599.81;;;-141.97;82.29
7018;BME280;3549;42.162;24.726;2023-06-10T02:38:13;47597.88;;;-141.97;81.54
7018;BME280;3549;42.162;24.726;2023-06-10T02:40:39;47634.41;;;-141.97;81.51
7018;BME280;3549;42.162;24.726;2023-06-10T02:43:04;47565.22;;;-141.97;81.00
7018;BME280;3549;42.162;24.726;2023-06-10T02:45:30;47611.34;;;-141.97;80.71
7018;BME280;3549;42.162;24.726;2023-06-10T02:47:55;47578.66;;;-141.97;80.24
7018;BME280;3549;42.162;24.726;2023-06-10T02:50:20;47505.63;;;-141.97;80.04
7018;BME280;3549;42.162;24.726;2023-06-10T02:52:46;47613.25;;;-141.97;80.04
7018;BME280;3549;42.162;24.726;2023-06-10T02:55:12;47534.44;;;-141.97;79.66
7018;BME280;3549;42.162;24.726;2023-06-10T02:57:37;47576.75;;;-141.97;79.66
7018;BME280;3549;42.162;24.726;2023-06-10T03:00:03;47609.41;;;-141.97;79.57
7018;BME280;3549;42.162;24.726;2023-06-10T03:02:34;47538.28;;;-141.97;79.49
7018;BME280;3549;42.162;24.726;2023-06-10T03:05:02;47599.81;;;-141.97;79.20
7018;BME280;3549;42.162;24.726;2023-06-10T03:07:27;47580.59;;;-141.97;78.60
7018;BME280;3549;42.162;24.726;2023-06-10T03:09:53;47717.06;;;-141.97;78.39
7018;BME280;3549;42.162;24.726;2023-06-10T03:12:18;47718.97;;;-141.97;78.16
7018;BME280;3549;42.162;24.726;2023-06-10T03:14:43;47572.91;;;-141.97;78.13
7018;BME280;3549;42.162;24.726;2023-06-10T03:17:09;47609.41;;;-141.97;77.88
7018;BME280;3549;42.162;24.726;2023-06-10T03:19:34;47578.66;;;-141.97;78.10
7018;BME280;3549;42.162;24.726;2023-06-10T03:22:16;47580.59;;;-141.97;78.19
7018;BME280;3549;42.162;24.726;2023-06-10T03:24:41;47565.22;;;-141.97;77.71
7018;BME280;3549;42.162;24.726;2023-06-10T03:27:09;47590.19;;;-141.97;77.88
7018;BME280;3549;42.162;24.726;2023-06-10T03:29:36;47572.91;;;-141.97;77.16
7018;BME280;3549;42.162;24.726;2023-06-10T03:32:02;47565.22;;;-141.97;76.83
7018;BME280;3549;42.162;24.726;2023-06-10T03:34:28;47557.53;;;-141.97;76.48
7018;BME280;3549;42.162;24.726;2023-06-10T03:36:55;47609.41;;;-141.97;75.83
7018;BME280;3549;42.162;24.726;2023-06-10T03:39:20;47595.97;;;-141.97;75.58
7018;BME280;3549;42.162;24.726;2023-06-10T03:41:46;47555.59;;;-141.97;75.40
7018;BME280;3549;42.162;24.726;2023-06-10T03:44:11;47578.66;;;-141.97;74.52
7018;BME280;3549;42.162;24.726;2023-06-10T03:46:37;47505.63;;;-141.97;73.88
7018;BME280;3549;42.162;24.726;2023-06-10T03:49:02;47542.16;;;-141.97;74.02
7018;BME280;3549;42.162;24.726;2023-06-10T03:51:29;47547.91;;;-141.97;74.41
7018;BME280;3549;42.162;24.726;2023-06-10T03:53:55;47538.28;;;-141.97;74.68
7018;BME280;3549;42.162;24.726;2023-06-10T03:56:20;47542.16;;;-141.97;74.29
7018;BME280;3549;42.162;24.726;2023-06-10T03:58:46;47607.50;;;-141.97;74.03
7018;BME280;3549;42.162;24.726;2023-06-10T04:01:11;47561.38;;;-141.97;74.15
7018;BME280;3549;42.162;24.726;2023-06-10T04:03:38;47565.22;;;-141.97;74.66
7018;BME280;3549;42.162;24.726;2023-06-10T04:06:05;47692.06;;;-141.97;74.58
7018;BME280;3549;42.162;24.726;2023-06-10T04:08:30;47561.38;;;-141.97;74.41
7018;BME280;3549;42.162;24.726;2023-06-10T04:10:56;47530.59;;;-141.97;74.40
7018;BME280;3549;42.162;24.726;2023-06-10T04:13:23;47601.72;;;-141.97;74.37
7018;BME280;3549;42.162;24.726;2023-06-10T04:15:48;47549.84;;;-141.97;73.70
7018;BME280;3549;42.162;24.726;2023-06-10T04:18:13;47582.50;;;-141.97;73.30
7018;BME280;3549;42.162;24.726;2023-06-10T04:20:39;47586.34;;;-141.97;73.50
7018;BME280;3549;42.162;24.726;2023-06-10T04:23:04;47572.91;;;-141.97;73.48
7018;BME280;3549;42.162;24.726;2023-06-10T04:25:29;47540.22;;;-141.97;73.17
7018;BME280;3549;42.162;24.726;2023-06-10T04:27:55;47569.06;;;-141.97;72.59
7018;BME280;3549;42.162;24.726;2023-06-10T04:30:20;47557.53;;;-141.97;72.44
7018;BME280;3549;42.162;24.726;2023-06-10T04:32:47;47580.59;;;-141.97;72.16
7018;BME280;3549;42.162;24.726;2023-06-10T04:35:12;47496.00;;;-141.97;71.88
7018;BME280;3549;42.162;24.726;2023-06-10T04:37:39;47743.97;;;-141.97;71.74
7018;BME280;3549;42.162;24.726;2023-06-10T04:40:06;47584.44;;;-141.97;71.20
7018;BME280;3549;42.162;24.726;2023-06-10T04:42:31;47570.97;;;-141.97;70.16
7018;BME280;3549;42.162;24.726;2023-06-10T04:44:56;47582.50;;;-141.97;70.15
7018;BME280;3549;42.162;24.726;2023-06-10T04:47:22;47546.00;;;-141.97;70.53
7018;BME280;3549;42.162;24.726;2023-06-10T04:49:48;47557.53;;;-141.97;70.15
7018;BME280;3549;42.162;24.726;2023-06-10T04:52:13;47576.75;;;-141.97;69.91
7018;BME280;3549;42.162;24.726;2023-06-10T04:54:39;47457.56;;;-141.97;69.14
7018;BME280;3549;42.162;24.726;2023-06-10T04:57:05;47567.13;;;-141.97;68.85
7018;BME280;3549;42.162;24.726;2023-06-10T04:59:32;47555.59;;;-141.97;68.17
7018;BME280;3549;42.162;24.726;2023-06-10T05:01:58;47574.81;;;-141.97;67.68
7018;BME280;3549;42.162;24.726;2023-06-10T05:04:24;47553.69;;;-141.97;66.78
7018;BME280;3549;42.162;24.726;2023-06-10T05:06:49;47540.22;;;-141.97;68.01
7018;BME280;3549;42.162;24.726;2023-06-10T05:09:15;47699.75;;;-141.97;70.20
7018;BME280;3549;42.162;24.726;2023-06-10T05:11:40;47559.44;;;-141.97;70.23
7018;BME280;3549;42.162;24.726;2023-06-10T05:14:06;47499.84;;;-141.97;70.07
7018;BME280;3549;42.162;24.726;2023-06-10T05:16:31;47557.53;;;-141.97;69.58
7018;BME280;3549;42.162;24.726;2023-06-10T05:18:57;47546.00;;;-141.97;68.68
7018;BME280;3549;42.162;24.726;2023-06-10T05:21:22;47549.84;;;-141.97;68.06
7018;BME280;3549;42.162;24.726;2023-06-10T05:23:48;47555.59;;;-141.97;65.21
7018;BME280;3549;42.162;24.726;2023-06-10T05:26:13;47563.28;;;-141.97;65.10
7018;BME280;3549;42.162;24.726;2023-06-10T05:28:39;47509.47;;;-141.97;64.60
7018;BME280;3549;42.162;24.726;2023-06-10T05:31:04;47761.25;;;-141.97;64.86
7018;BME280;3549;42.162;24.726;2023-06-10T05:33:30;47546.00;;;-141.97;63.88
7018;BME280;3549;42.162;24.726;2023-06-10T05:35:55;47524.84;;;-141.97;64.08
7018;BME280;3549;42.162;24.726;2023-06-10T05:38:20;47521.00;;;-141.97;63.98
7018;BME280;3549;42.162;24.726;2023-06-10T05:40:46;47553.69;;;-141.97;63.45
7018;BME280;3549;42.162;24.726;2023-06-10T05:43:11;47578.66;;;-141.97;64.04
7018;BME280;3549;42.162;24.726;2023-06-10T05:45:37;47530.59;;;-141.97;64.13
7018;BME280;3549;42.162;24.726;2023-06-10T05:48:03;47542.16;;;-141.97;65.89
7018;BME280;3549;42.162;24.726;2023-06-10T05:50:28;47565.22;;;-141.97;65.52
7018;BME280;3549;42.162;24.726;2023-06-10T05:52:54;47546.00;;;-141.97;66.30
7018;BME280;3549;42.162;24.726;2023-06-10T05:55:20;47580.59;;;-141.97;66.88
7018;BME280;3549;42.162;24.726;2023-06-10T05:57:45;47576.75;;;-141.97;67.81
7018;BME280;3549;42.162;24.726;2023-06-10T06:00:11;47471.03;;;-141.97;68.39
7018;BME280;3549;42.162;24.726;2023-06-10T06:02:37;47536.38;;;-141.97;68.20
7018;BME280;3549;42.162;24.726;2023-06-10T06:05:03;47559.44;;;-141.97;67.72
7018;BME280;3549;42.162;24.726;2023-06-10T06:07:29;47482.56;;;-141.97;67.09
7018;BME280;3549;42.162;24.726;2023-06-10T06:09:55;47572.91;;;-141.97;68.10
7018;BME280;3549;42.162;24.726;2023-06-10T06:12:20;47451.81;;;-141.97;68.59
7018;BME280;3549;42.162;24.726;2023-06-10T06:14:45;47530.59;;;-141.97;68.30
7018;BME280;3549;42.162;24.726;2023-06-10T06:17:11;47597.88;;;-141.97;66.35
7018;BME280;3549;42.162;24.726;2023-06-10T06:19:36;47588.28;;;-141.97;66.62
7018;BME280;3549;42.162;24.726;2023-06-10T06:22:02;47672.84;;;-141.97;68.13
7018;BME280;3549;42.162;24.726;2023-06-10T06:24:27;47476.78;;;-141.97;69.16
7018;BME280;3549;42.162;24.726;2023-06-10T06:26:53;47484.47;;;-141.97;68.38
7018;BME280;3549;42.162;24.726;2023-06-10T06:29:18;47620.94;;;-141.97;67.15
7018;BME280;3549;42.162;24.726;2023-06-10T06:31:43;47434.50;;;-141.97;65.43
7018;BME280;3549;42.162;24.726;2023-06-10T06:34:09;47538.28;;;-141.97;65.02
7018;BME280;3549;42.162;24.726;2023-06-10T06:36:34;47503.69;;;-141.97;64.25
7018;BME280;3549;42.162;24.726;2023-06-10T06:39:00;47549.84;;;-141.97;64.37
7018;BME280;3549;42.162;24.726;2023-06-10T06:41:28;47507.53;;;-141.97;63.21
7018;BME280;3549;42.162;24.726;2023-06-10T06:43:54;47480.63;;;-141.97;61.96
7018;BME280;3549;42.162;24.726;2023-06-10T06:46:20;47565.22;;;-141.97;60.92
7018;BME280;3549;42.162;24.726;2023-06-10T06:48:46;47394.16;;;-141.97;59.90
7018;BME280;3549;42.162;24.726;2023-06-10T06:51:11;47565.22;;;-141.97;58.83
7018;BME280;3549;42.162;24.726;2023-06-10T06:53:37;47442.19;;;-141.97;57.65
7018;BME280;3549;42.162;24.726;2023-06-10T06:56:07;47530.59;;;-141.97;57.34
7018;BME280;3549;42.162;24.726;2023-06-10T06:58:33;47513.31;;;-141.97;57.17
7018;BME280;3549;42.162;24.726;2023-06-10T07:00:58;47494.09;;;-141.97;56.51
7018;BME280;3549;42.162;24.726;2023-06-10T07:03:23;47488.31;;;-141.97;54.86
7018;BME280;3549;42.162;24.726;2023-06-10T07:05:49;47496.00;;;-141.97;54.44
7018;BME280;3549;42.162;24.726;2023-06-10T07:08:14;47442.19;;;-141.97;55.70
7018;BME280;3549;42.162;24.726;2023-06-10T07:10:40;47534.44;;;-141.97;56.30
7018;BME280;3549;42.162;24.726;2023-06-10T07:13:05;47472.94;;;-141.97;55.68
7018;BME280;3549;42.162;24.726;2023-06-10T07:15:30;47507.53;;;-141.97;57.63
7018;BME280;3549;42.162;24.726;2023-06-10T07:17:57;47538.28;;;-141.97;57.45
7018;BME280;3549;42.162;24.726;2023-06-10T07:20:23;47534.44;;;-141.97;57.80
7018;BME280;3549;42.162;24.726;2023-06-10T07:22:48;47511.38;;;-141.97;57.05
7018;BME280;3549;42.162;24.726;2023-06-10T07:25:13;47542.16;;;-141.97;56.94
7018;BME280;3549;42.162;24.726;2023-06-10T07:27:40;47557.53;;;-141.97;57.38
7018;BME280;3549;42.162;24.726;2023-06-10T07:30:07;47530.59;;;-141.97;57.73
7018;BME280;3549;42.162;24.726;2023-06-10T07:32:33;47530.59;;;-141.97;57.26
7018;BME280;3549;42.162;24.726;2023-06-10T07:34:59;47572.91;;;-141.97;55.20
7018;BME280;3549;42.162;24.726;2023-06-10T07:37:24;47472.94;;;-141.97;54.72
7018;BME280;3549;42.162;24.726;2023-06-10T07:39:50;47653.63;;;-141.97;54.74
7018;BME280;3549;42.162;24.726;2023-06-10T07:42:15;47430.66;;;-141.97;53.52
7018;BME280;3549;42.162;24.726;2023-06-10T07:44:41;47513.31;;;-141.97;54.05
7018;BME280;3549;42.162;24.726;2023-06-10T07:47:06;47505.63;;;-141.97;53.82
7018;BME280;3549;42.162;24.726;2023-06-10T07:49:31;47499.84;;;-141.97;51.85
7018;BME280;3549;42.162;24.726;2023-06-10T07:51:57;47499.84;;;-141.97;50.89
7018;BME280;3549;42.162;24.726;2023-06-10T07:54:23;47480.63;;;-141.97;50.87
7018;BME280;3549;42.162;24.726;2023-06-10T07:56:48;47595.97;;;-141.97;50.92
7018;BME280;3549;42.162;24.726;2023-06-10T07:59:16;47488.31;;;-141.97;51.07
7018;BME280;3549;42.162;24.726;2023-06-10T08:01:41;47474.88;;;-141.97;49.23
7018;BME280;3549;42.162;24.726;2023-06-10T08:04:08;47449.88;;;-141.97;49.80
7018;BME280;3549;42.162;24.726;2023-06-10T08:06:33;47469.09;;;-141.97;51.07
7018;BME280;3549;42.162;24.726;2023-06-10T08:08:59;47457.56;;;-141.97;50.56
7018;BME280;3549;42.162;24.726;2023-06-10T08:11:25;47440.28;;;-141.97;48.78
7018;BME280;3549;42.162;24.726;2023-06-10T08:13:53;47403.75;;;-141.97;49.29
7018;BME280;3549;42.162;24.726;2023-06-10T08:16:18;47480.63;;;-141.97;47.97
7018;BME280;3549;42.162;24.726;2023-06-10T08:18:44;47624.78;;;-141.97;46.91
7018;BME280;3549;42.162;24.726;2023-06-10T08:21:09;47459.50;;;-141.97;44.74
7018;BME280;3549;42.162;24.726;2023-06-10T08:23:35;47330.72;;;-141.97;44.17
7018;BME280;3549;42.162;24.726;2023-06-10T08:26:00;47363.41;;;-141.97;44.48
7018;BME280;3549;42.162;24.726;2023-06-10T08:28:26;47638.25;;;-141.97;44.91
7018;BME280;3549;42.162;24.726;2023-06-10T08:30:51;47428.75;;;-141.97;44.02
7018;BME280;3549;42.162;24.726;2023-06-10T08:33:16;47371.09;;;-141.97;43.45
7018;BME280;3549;42.162;24.726;2023-06-10T08:35:42;47434.50;;;-141.97;42.74
7018;BME280;3549;42.162;24.726;2023-06-10T08:38:07;47459.50;;;-141.97;42.81
7018;BME280;3549;42.162;24.726;2023-06-10T08:40:33;47426.81;;;-141.97;41.23
7018;BME280;3549;42.162;24.726;2023-06-10T08:45:30;47426.81;;;-141.97;41.13
7018;BME280;3549;42.162;24.726;2023-06-10T08:48:02;47369.16;;;-141.97;40.41
7018;BME280;3549;42.162;24.726;2023-06-10T08:50:30;47223.09;;;-141.97;39.72
7018;BME280;3549;42.162;24.726;2023-06-10T08:52:57;47403.75;;;-141.97;39.27
7018;BME280;3549;42.162;24.726;2023-06-10T08:55:30;47403.75;;;-141.97;40.28
7018;BME280;3549;42.162;24.726;2023-06-10T08:57:59;47376.84;;;-141.97;39.74
7018;BME280;3549;42.162;24.726;2023-06-10T09:00:26;47403.75;;;-141.97;40.17
7018;BME280;3549;42.162;24.726;2023-06-10T09:02:52;47392.22;;;-141.97;40.81
7018;BME280;3549;42.162;24.726;2023-06-10T09:05:17;47415.28;;;-141.97;40.36
7018;BME280;3549;42.162;24.726;2023-06-10T09:07:43;47384.53;;;-141.97;40.11
7018;BME280;3549;42.162;24.726;2023-06-10T09:10:10;47415.28;;;-141.97;41.18
7018;BME280;3549;42.162;24.726;2023-06-10T09:12:36;47419.13;;;-141.97;42.55
7018;BME280;3549;42.162;24.726;2023-06-10T09:15:03;47357.63;;;-141.97;43.44
7018;BME280;3549;42.162;24.726;2023-06-10T09:17:29;47422.97;;;-141.97;44.04
7018;BME280;3549;42.162;24.726;2023-06-10T09:19:55;47447.97;;;-141.97;43.83
7018;BME280;3549;42.162;24.726;2023-06-10T09:22:22;47432.59;;;-141.97;42.48
7018;BME280;3549;42.162;24.726;2023-06-10T09:24:48;47653.63;;;-141.97;41.46
7018;BME280;3549;42.162;24.726;2023-06-10T09:27:14;47634.41;;;-141.97;41.96
7018;BME280;3549;42.162;24.726;2023-06-10T09:29:47;47417.22;;;-141.97;43.04
7018;BME280;3549;42.162;24.726;2023-06-10T09:32:13;47730.50;;;-141.97;43.41
7018;BME280;3549;42.162;24.726;2023-06-10T09:34:39;47478.72;;;-141.97;43.11
7018;BME280;3549;42.162;24.726;2023-06-10T09:37:06;47415.28;;;-141.97;44.28
7018;BME280;3549;42.162;24.726;2023-06-10T09:39:31;47417.22;;;-141.97;45.10
7018;BME280;3549;42.162;24.726;2023-06-10T09:41:57;47438.34;;;-141.97;45.36
7018;BME280;3549;42.162;24.726;2023-06-10T09:44:22;47461.41;;;-141.97;45.90
7018;BME280;3549;42.162;24.726;2023-06-10T09:46:49;47745.88;;;-141.97;46.16
7018;BME280;3549;42.162;24.726;2023-06-10T09:49:19;47451.81;;;-141.97;46.01
7018;BME280;3549;42.162;24.726;2023-06-10T09:51:52;47661.31;;;-141.97;46.48
7018;BME280;3549;42.162;24.726;2023-06-10T09:54:19;47446.03;;;-141.97;45.59
7018;BME280;3549;42.162;24.726;2023-06-10T09:56:49;47465.25;;;-141.97;44.97
7018;BME280;3549;42.162;24.726;2023-06-10T09:59:15;47442.19;;;-141.97;43.96
7018;BME280;3549;42.162;24.726;2023-06-10T10:01:41;47488.31;;;-141.97;43.58
7018;BME280;3549;42.162;24.726;2023-06-10T10:04:06;47453.72;;;-141.97;43.55
7018;BME280;3549;42.162;24.726;2023-06-10T10:06:32;47405.69;;;-141.97;43.33
7018;BME280;3549;42.162;24.726;2023-06-10T10:08:57;47394.16;;;-141.97;42.78
7018;BME280;3549;42.162;24.726;2023-06-10T10:11:23;47444.13;;;-141.97;42.79
7018;BME280;3549;42.162;24.726;2023-06-10T10:13:50;47419.13;;;-141.97;41.77
7018;BME280;3549;42.162;24.726;2023-06-10T10:16:18;47388.38;;;-141.97;41.27
7018;BME280;3549;42.162;24.726;2023-06-10T10:18:55;47578.66;;;-141.97;39.84
7018;BME280;3549;42.162;24.726;2023-06-10T10:21:23;47401.84;;;-141.97;39.86
7018;BME280;3549;42.162;24.726;2023-06-10T10:26:21;47659.38;;;-141.97;40.40
7018;BME280;3549;42.162;24.726;2023-06-10T10:29:01;47319.19;;;-141.97;40.73
7018;BME280;3549;42.162;24.726;2023-06-10T10:31:32;47373.00;;;-141.97;41.11
7018;BME280;3549;42.162;24.726;2023-06-10T10:36:48;47309.59;;;-141.97;40.79
7018;BME280;3549;42.162;24.726;2023-06-10T10:39:14;47426.81;;;-141.97;39.66
7018;BME280;3549;42.162;24.726;2023-06-10T10:41:40;47413.38;;;-141.97;39.39
7018;BME280;3549;42.162;24.726;2023-06-10T10:44:07;47348.03;;;-141.97;39.56
7018;BME280;3549;42.162;24.726;2023-06-10T10:46:48;47422.97;;;-141.97;39.39
7018;BME280;3549;42.162;24.726;2023-06-10T10:49:15;47405.69;;;-141.97;40.43
7018;BME280;3549;42.162;24.726;2023-06-10T10:51:59;47382.63;;;-141.97;39.85
7018;BME280;3549;42.162;24.726;2023-06-10T10:54:32;47374.94;;;-141.97;39.85
7018;BME280;3549;42.162;24.726;2023-06-10T10:57:17;47376.84;;;-141.97;40.93
7018;BME280;3549;42.162;24.726;2023-06-10T11:04:57;47380.69;;;-141.97;41.23
7018;BME280;3549;42.162;24.726;2023-06-10T11:07:25;47315.34;;;-141.97;41.78
7018;BME280;3549;42.162;24.726;2023-06-10T11:10:17;47419.13;;;-141.97;41.42
7018;BME280;3549;42.162;24.726;2023-06-10T11:15:23;47426.81;;;-141.97;41.85
7018;BME280;3549;42.162;24.726;2023-06-10T11:18:08;47465.25;;;-141.97;41.62
7018;BME280;3549;42.162;24.726;2023-06-10T11:31:33;47442.19;;;-141.97;39.40
7018;BME280;3549;42.162;24.726;2023-06-10T11:34:01;47442.19;;;-141.97;39.12
7018;BME280;3549;42.162;24.726;2023-06-10T11:36:28;47409.53;;;-141.97;39.48
7018;BME280;3549;42.162;24.726;2023-06-10T11:39:12;47399.91;;;-141.97;38.76
7018;BME280;3549;42.162;24.726;2023-06-10T11:41:38;47376.84;;;-141.97;38.08
7018;BME280;3549;42.162;24.726;2023-06-10T11:44:10;47294.22;;;-141.97;38.31
7018;BME280;3549;42.162;24.726;2023-06-10T11:46:36;47419.13;;;-141.97;37.97
7018;BME280;3549;42.162;24.726;2023-06-10T11:49:02;47361.47;;;-141.97;37.97
7018;BME280;3549;42.162;24.726;2023-06-10T11:51:33;47382.63;;;-141.97;37.29
7018;BME280;3549;42.162;24.726;2023-06-10T11:53:59;47349.94;;;-141.97;37.47
7018;BME280;3549;42.162;24.726;2023-06-10T11:56:26;47232.72;;;-141.97;37.59
7018;BME280;3549;42.162;24.726;2023-06-10T11:58:54;47371.09;;;-141.97;37.62
7018;BME280;3549;42.162;24.726;2023-06-10T12:01:25;47384.53;;;-141.97;37.86
7018;BME280;3549;42.162;24.726;2023-06-10T12:04:03;47284.59;;;-141.97;36.26
7018;BME280;3549;42.162;24.726;2023-06-10T12:06:49;47338.41;;;-141.97;36.41
7018;BME280;3549;42.162;24.726;2023-06-10T12:09:19;47349.94;;;-141.97;37.28
7018;BME280;3549;42.162;24.726;2023-06-10T12:11:48;47505.63;;;-141.97;36.58
7018;BME280;3549;42.162;24.726;2023-06-10T12:14:14;47363.41;;;-141.97;34.80
7018;BME280;3549;42.162;24.726;2023-06-10T12:16:39;47236.56;;;-141.97;34.59
7018;BME280;3549;42.162;24.726;2023-06-10T12:19:05;47265.38;;;-141.97;34.34
7018;BME280;3549;42.162;24.726;2023-06-10T12:21:33;47246.16;;;-141.97;34.47
7018;BME280;3549;42.162;24.726;2023-06-10T12:24:09;47173.13;;;-141.97;34.21
7018;BME280;3549;42.162;24.726;2023-06-10T12:29:23;47188.50;;;-141.97;33.52
7018;BME280;3549;42.162;24.726;2023-06-10T12:31:56;47299.97;;;-141.97;33.67
7018;BME280;3549;42.162;24.726;2023-06-10T12:34:39;47296.13;;;-141.97;34.16
7018;BME280;3549;42.162;24.726;2023-06-10T12:37:07;47180.81;;;-141.97;33.81
7018;BME280;3549;42.162;24.726;2023-06-10T12:39:37;47269.22;;;-141.97;33.72
7018;BME280;3549;42.162;24.726;2023-06-10T12:42:03;47294.22;;;-141.97;33.81
7018;BME280;3549;42.162;24.726;2023-06-10T12:44:33;47269.22;;;-141.97;33.90
7018;BME280;3549;42.162;24.726;2023-06-10T12:47:00;47175.06;;;-141.97;33.62
7018;BME280;3549;42.162;24.726;2023-06-10T12:49:26;47275.00;;;-141.97;32.66
7018;BME280;3549;42.162;24.726;2023-06-10T12:51:51;47273.06;;;-141.97;33.84
7018;BME280;3549;42.162;24.726;2023-06-10T12:54:17;47586.34;;;-141.97;34.65
7018;BME280;3549;42.162;24.726;2023-06-10T12:56:42;47296.13;;;-141.97;35.67
7018;BME280;3549;42.162;24.726;2023-06-10T12:59:08;47588.28;;;-141.97;35.60
7018;BME280;3549;42.162;24.726;2023-06-10T13:01:33;47263.47;;;-141.97;36.47
7018;BME280;3549;42.162;24.726;2023-06-10T13:03:59;47342.25;;;-141.97;37.05
7018;BME280;3549;42.162;24.726;2023-06-10T13:06:25;47296.13;;;-141.97;37.23
7018;BME280;3549;42.162;24.726;2023-06-10T13:08:50;47373.00;;;-141.97;38.54
7018;BME280;3549;42.162;24.726;2023-06-10T13:11:16;47357.63;;;-141.97;39.25
7018;BME280;3549;42.162;24.726;2023-06-10T13:13:41;47286.53;;;-141.97;39.25
7018;BME280;3549;42.162;24.726;2023-06-10T13:16:07;47349.94;;;-141.97;39.11
7018;BME280;3549;42.162;24.726;2023-06-10T13:18:33;47298.06;;;-141.97;37.53
7018;BME280;3549;42.162;24.726;2023-06-10T13:21:03;47605.56;;;-141.97;35.13